Time;durP1;ratioP1;P1;durP2;ratioP2;P2;SDS_P1;SDS_P2;PMS_P1;PMS_P2;Temp;Humidity;BMP_temperature;BMP_pressure;BME280_temperature;BME280_humidity;BME280_pressure;Samples;Min_cycle;Max_cycle;Signal;HPM_P1;HPM_P2
2022/01/25 00:09:34;;;;;;;33.92;16.13;;;8.50;95.70;;;;;;5014434;28;20107;-80
2022/01/25 00:26:36;;;;;;;32.72;16.95;;;8.30;95.80;;;;;;5014250;28;20088;-78
2022/01/25 00:31:17;;;;;;;29.52;16.05;;;8.00;95.40;;;;;;5013485;28;20053;-78
2022/01/25 00:33:48;;;;;;;33.80;17.10;;;8.00;95.40;;;;;;5013502;28;20014;-79
2022/01/25 00:36:17;;;;;;;28.63;16.63;;;8.10;95.60;;;;;;5014023;28;20017;-79
2022/01/25 00:38:43;;;;;;;27.23;15.48;;;8.10;95.70;;;;;;4996219;28;20110;-78
2022/01/25 00:41:08;;;;;;;29.17;16.40;;;8.20;95.70;;;;;;5013507;28;20120;-78
2022/01/25 00:43:34;;;;;;;34.80;16.95;;;8.20;95.70;;;;;;4995821;28;20044;-78
2022/01/25 00:46:05;;;;;;;26.65;14.88;;;8.30;95.60;;;;;;5013011;28;20041;-79
2022/01/25 00:48:43;;;;;;;;;;;;;;;;;;;;;
2022/01/25 00:51:36;;;;;;;30.08;15.88;;;8.40;95.30;;;;;;5013733;28;20060;-80
2022/01/25 00:54:26;;;;;;;29.95;16.10;;;8.40;95.40;;;;;;5012284;28;20407;-78
2022/01/25 00:56:51;;;;;;;32.70;16.77;;;8.30;95.30;;;;;;5012678;28;20092;-77
2022/01/25 00:59:22;;;;;;;28.20;16.48;;;8.10;95.20;;;;;;5012857;28;20125;-77
2022/01/25 01:01:51;;;;;;;28.23;16.42;;;8.10;95.40;;;;;;5013020;28;20045;-78
2022/01/25 01:04:18;;;;;;;27.25;14.93;;;8.10;95.50;;;;;;4995684;28;20089;-78
2022/01/25 01:06:45;;;;;;;35.37;18.30;;;8.20;95.70;;;;;;4995695;28;20359;-78
2022/01/25 01:09:12;;;;;;;27.73;15.30;;;8.20;95.50;;;;;;4996144;28;20751;-80
2022/01/25 01:11:49;;;;;;;34.05;16.30;;;8.20;95.40;;;;;;5013098;28;20034;-78
2022/01/25 01:31:20;;;;;;;29.88;16.35;;;8.00;94.70;;;;;;4994943;28;20050;-78
2022/01/25 01:39:45;;;;;;;37.58;18.02;;;8.10;95.10;;;;;;4998605;28;20044;-78
2022/01/25 01:42:29;;;;;;;33.60;17.33;;;8.20;95.20;;;;;;4995245;28;20543;-80
2022/01/25 01:47:36;;;;;;;32.30;18.10;;;8.10;94.40;;;;;;4997454;28;20109;-79
2022/01/25 01:50:09;;;;;;;33.45;18.27;;;8.10;94.70;;;;;;4996058;28;20452;-77
2022/01/25 01:52:36;;;;;;;37.80;18.80;;;8.10;94.60;;;;;;4978814;28;20038;-76
2022/01/25 01:55:01;;;;;;;31.25;17.50;;;8.00;94.40;;;;;;4981500;28;20034;-77
2022/01/25 01:57:27;;;;;;;30.58;16.63;;;8.00;94.20;;;;;;4983057;28;20125;-79
2022/01/25 01:59:53;;;;;;;34.70;17.83;;;7.90;94.50;;;;;;5007929;28;20030;-78
2022/01/25 02:02:20;;;;;;;30.77;17.25;;;7.80;94.10;;;;;;5006454;28;20038;-78
2022/01/25 02:04:45;;;;;;;33.65;18.15;;;7.80;94.20;;;;;;4995967;28;20030;-78
2022/01/25 02:07:11;;;;;;;34.10;17.40;;;7.70;94.20;;;;;;4996656;28;20584;-77
2022/01/25 02:09:36;;;;;;;33.55;18.10;;;7.70;94.20;;;;;;4979233;28;20026;-78
2022/01/25 02:12:02;;;;;;;35.38;18.90;;;7.70;94.30;;;;;;4997931;28;20018;-79
2022/01/25 02:14:28;;;;;;;35.67;17.48;;;7.80;94.30;;;;;;4979184;28;20038;-78
2022/01/25 02:17:06;;;;;;;35.47;17.83;;;7.70;94.10;;;;;;5000408;28;20030;-78
2022/01/25 02:22:30;;;;;;;35.63;18.23;;;7.60;94.20;;;;;;5007070;28;20131;-78
2022/01/25 02:24:56;;;;;;;38.35;18.92;;;7.70;94.30;;;;;;4989999;28;20101;-79
2022/01/25 02:27:22;;;;;;;34.03;18.08;;;7.70;94.20;;;;;;5015738;28;20061;-77
2022/01/25 02:29:48;;;;;;;34.63;17.88;;;7.70;94.20;;;;;;5026133;28;20042;-78
2022/01/25 02:32:14;;;;;;;34.03;18.27;;;7.80;94.40;;;;;;5003910;28;20065;-79
2022/01/25 02:34:40;;;;;;;37.33;18.42;;;7.80;94.20;;;;;;5017952;28;20133;-77
2022/01/25 02:37:09;;;;;;;37.38;18.90;;;7.70;94.10;;;;;;5015602;28;20030;-80
2022/01/25 02:39:42;;;;;;;37.05;18.92;;;7.60;94.40;;;;;;4995868;28;20566;-79
2022/01/25 02:42:10;;;;;;;34.95;18.65;;;7.70;94.50;;;;;;5013853;28;20029;-80
2022/01/25 02:44:36;;;;;;;35.92;17.70;;;7.70;94.50;;;;;;5013587;28;20407;-79
2022/01/25 02:49:30;;;;;;;31.80;17.80;;;7.80;94.60;;;;;;5013265;28;20396;-79
2022/01/25 02:51:56;;;;;;;41.63;20.02;;;7.90;94.70;;;;;;5013177;28;20030;-79
2022/01/25 02:54:22;;;;;;;38.00;19.17;;;8.00;94.50;;;;;;5013976;28;20108;-79
2022/01/25 02:56:48;;;;;;;33.88;18.85;;;8.00;94.50;;;;;;5013422;28;20046;-78
2022/01/25 02:59:16;;;;;;;35.75;19.10;;;8.10;94.50;;;;;;5013138;28;20448;-78
2022/01/25 03:01:43;;;;;;;36.22;19.75;;;8.10;94.40;;;;;;5013155;28;20057;-78
2022/01/25 03:04:10;;;;;;;38.08;19.50;;;8.00;94.50;;;;;;5013038;28;20594;-79
2022/01/25 03:06:36;;;;;;;38.88;19.98;;;8.10;94.50;;;;;;4995154;28;20653;-82
2022/01/25 03:09:04;;;;;;;38.28;19.35;;;8.10;94.50;;;;;;5013232;28;20033;-79
2022/01/25 03:11:30;;;;;;;38.67;18.30;;;8.10;94.40;;;;;;4994583;28;20444;-80
2022/01/25 03:13:59;;;;;;;34.33;17.90;;;8.10;94.60;;;;;;5011432;28;20046;-80
2022/01/25 03:19:28;;;;;;;42.85;19.88;;;8.20;94.50;;;;;;5010332;28;20038;-80
2022/01/25 03:21:51;;;;;;;41.45;19.73;;;8.20;94.40;;;;;;5010097;28;20448;-79
2022/01/25 03:24:16;;;;;;;39.88;19.73;;;8.20;94.60;;;;;;5011608;28;20036;-79
2022/01/25 03:26:42;;;;;;;36.97;19.52;;;8.10;94.60;;;;;;4993212;28;20034;-78
2022/01/25 03:29:09;;;;;;;41.63;20.65;;;8.00;94.70;;;;;;5010720;28;20040;-78
2022/01/25 03:31:34;;;;;;;37.92;20.42;;;8.00;94.90;;;;;;5011484;28;20030;-79
2022/01/25 03:34:00;;;;;;;44.30;21.08;;;8.00;95.00;;;;;;4993708;28;20097;-79
2022/01/25 03:36:26;;;;;;;44.80;19.75;;;8.00;95.00;;;;;;4993946;28;20130;-78
2022/01/25 03:38:52;;;;;;;44.05;21.38;;;8.00;95.20;;;;;;4993401;28;20109;-78
2022/01/25 03:41:19;;;;;;;44.58;22.05;;;7.80;95.20;;;;;;5023489;28;20037;-78
2022/01/25 03:43:51;;;;;;;46.55;20.85;;;7.80;95.30;;;;;;5016379;28;20165;-78
2022/01/25 03:46:24;;;;;;;49.97;23.92;;;7.90;95.50;;;;;;4993716;28;20242;-79
2022/01/25 03:51:34;;;;;;;44.95;21.90;;;8.10;95.20;;;;;;5011306;28;20077;-80
2022/01/25 03:54:00;;;;;;;48.38;22.88;;;8.10;95.10;;;;;;4993786;28;20057;-79
2022/01/25 03:56:27;;;;;;;52.45;25.05;;;8.10;95.00;;;;;;4993135;28;20037;-78
2022/01/25 03:58:52;;;;;;;57.40;25.85;;;8.10;94.80;;;;;;5010965;28;20045;-79
2022/01/25 04:01:18;;;;;;;53.13;25.75;;;8.10;94.90;;;;;;5010830;28;20029;-79
2022/01/25 04:03:59;;;;;;;55.05;26.08;;;8.20;94.70;;;;;;5011035;28;20081;-78
2022/01/25 04:06:26;;;;;;;51.65;23.65;;;8.10;94.60;;;;;;4993233;28;20022;-79
2022/01/25 04:08:51;;;;;;;61.35;26.67;;;8.00;94.60;;;;;;4992924;28;20071;-78
2022/01/25 04:11:17;;;;;;;51.88;26.05;;;8.00;94.80;;;;;;4993342;28;20121;-77
2022/01/25 04:13:43;;;;;;;60.15;27.98;;;8.10;94.90;;;;;;4993119;28;20117;-79
2022/01/25 04:16:14;;;;;;;58.60;27.52;;;8.10;94.90;;;;;;5010003;28;20033;-78
2022/01/25 04:19:24;;;;;;;56.70;27.33;;;8.10;94.90;;;;;;5010439;28;20022;-78
2022/01/25 04:26:51;;;;;;;62.38;28.35;;;7.90;95.20;;;;;;5010145;28;20483;-79
2022/01/25 04:29:17;;;;;;;66.57;28.55;;;8.00;95.30;;;;;;5011401;28;20383;-77
2022/01/25 04:31:43;;;;;;;60.40;28.25;;;8.00;95.20;;;;;;5014753;28;20034;-78
2022/01/25 04:50:11;;;;;;;60.25;28.23;;;7.90;95.20;;;;;;5013271;28;20045;-78
2022/01/25 04:52:49;;;;;;;60.20;29.13;;;7.80;95.50;;;;;;4996650;28;20034;-77
2022/01/25 04:55:25;;;;;;;57.78;27.52;;;7.90;95.50;;;;;;4996762;28;20178;-78
2022/01/25 04:58:01;;;;;;;66.05;28.05;;;7.90;95.40;;;;;;4996398;28;20018;-78
2022/01/25 05:00:27;;;;;;;60.70;29.70;;;7.90;95.30;;;;;;5014565;28;20033;-78
2022/01/25 05:03:06;;;;;;;59.97;28.13;;;7.80;95.30;;;;;;5013141;28;20034;-78
2022/01/25 05:05:41;;;;;;;60.22;27.77;;;7.80;95.40;;;;;;5013070;28;20026;-78
2022/01/25 05:08:19;;;;;;;62.40;29.08;;;7.80;95.40;;;;;;5013243;28;20475;-77
2022/01/25 05:11:02;;;;;;;58.30;27.90;;;7.60;95.40;;;;;;4995449;28;20446;-78
2022/01/25 05:16:50;;;;;;;62.85;27.77;;;7.60;95.50;;;;;;4952766;29;20457;-77
2022/01/25 05:24:32;;;;;;;66.88;27.80;;;7.80;95.20;;;;;;5014146;28;20113;-78
2022/01/25 05:26:57;;;;;;;67.20;27.80;;;7.80;95.10;;;;;;5013021;28;20731;-77
2022/01/25 05:29:23;;;;;;;69.65;29.40;;;7.80;94.80;;;;;;5013371;28;20062;-79
2022/01/25 05:31:49;;;;;;;68.93;29.08;;;7.60;94.90;;;;;;5013041;28;20144;-78
2022/01/25 05:34:14;;;;;;;61.78;28.52;;;7.70;95.10;;;;;;5012394;28;20474;-79
2022/01/25 05:36:42;;;;;;;62.30;28.98;;;7.70;95.10;;;;;;4995261;28;20371;-78
2022/01/25 05:39:12;;;;;;;61.95;28.55;;;7.70;95.00;;;;;;5013404;28;20018;-78
2022/01/25 05:41:40;;;;;;;61.00;26.45;;;7.80;94.90;;;;;;4994475;28;20061;-77
2022/01/25 05:44:22;;;;;;;57.97;26.40;;;7.90;94.90;;;;;;5012600;28;20053;-78
2022/01/25 05:47:04;;;;;;;61.40;26.83;;;7.90;94.80;;;;;;4995264;28;20582;-78
2022/01/25 05:49:30;;;;;;;60.83;27.38;;;7.90;94.70;;;;;;5012032;28;20041;-77
2022/01/25 05:51:55;;;;;;;65.78;25.90;;;7.90;94.60;;;;;;4994628;28;20050;-77
2022/01/25 05:54:21;;;;;;;56.83;26.17;;;7.90;94.60;;;;;;5012159;28;20029;-78
2022/01/25 05:56:47;;;;;;;58.75;26.27;;;7.80;94.50;;;;;;5011636;28;20132;-77
2022/01/25 05:59:12;;;;;;;57.15;24.92;;;7.80;94.30;;;;;;5011765;28;20537;-78
2022/01/25 06:01:38;;;;;;;57.75;25.58;;;7.80;93.90;;;;;;4994576;28;20052;-79
2022/01/25 06:04:04;;;;;;;59.00;25.17;;;7.80;94.00;;;;;;5011727;28;20486;-77
2022/01/25 06:06:30;;;;;;;62.72;25.75;;;7.70;94.00;;;;;;4995141;28;20069;-77
2022/01/25 06:08:56;;;;;;;52.88;24.10;;;7.70;94.10;;;;;;5012031;28;20026;-78
2022/01/25 06:11:22;;;;;;;59.03;25.42;;;7.70;94.00;;;;;;4993402;28;20479;-78
2022/01/25 06:13:48;;;;;;;56.45;24.85;;;7.60;93.90;;;;;;5011004;28;20042;-78
2022/01/25 06:16:14;;;;;;;61.90;24.35;;;7.60;94.00;;;;;;5011077;28;20052;-75
2022/01/25 06:18:39;;;;;;;59.05;25.90;;;7.50;94.00;;;;;;5012746;28;20098;-78
2022/01/25 06:21:05;;;;;;;49.25;23.52;;;7.60;94.30;;;;;;5018156;28;20041;-79
2022/01/25 06:23:31;;;;;;;55.35;23.35;;;7.70;94.30;;;;;;5023063;28;20094;-78
2022/01/25 06:25:58;;;;;;;51.88;23.33;;;7.70;94.00;;;;;;5028439;28;20033;-79
2022/01/25 06:28:24;;;;;;;52.70;22.73;;;7.60;94.10;;;;;;5022347;28;20041;-79
2022/01/25 06:30:49;;;;;;;52.00;24.02;;;7.60;94.10;;;;;;5014250;28;20444;-78
2022/01/25 06:33:15;;;;;;;52.55;22.52;;;7.60;94.10;;;;;;4996001;28;20037;-79
2022/01/25 06:35:42;;;;;;;54.42;23.55;;;7.50;94.10;;;;;;4994862;28;20113;-79
2022/01/25 06:38:07;;;;;;;56.47;23.52;;;7.40;94.10;;;;;;4994523;28;20038;-79
2022/01/25 06:40:33;;;;;;;54.35;22.70;;;7.40;94.40;;;;;;4994360;28;20048;-77
2022/01/25 06:42:58;;;;;;;52.40;22.38;;;7.50;94.40;;;;;;4994749;28;20109;-77
2022/01/25 06:45:25;;;;;;;55.40;23.65;;;7.50;94.30;;;;;;4994905;28;20014;-79
2022/01/25 06:47:51;;;;;;;57.42;24.33;;;7.60;94.40;;;;;;4993304;28;20140;-78
2022/01/25 06:50:19;;;;;;;55.00;22.10;;;7.60;94.40;;;;;;5016651;28;20381;-78
2022/01/25 06:52:46;;;;;;;48.80;21.05;;;7.60;94.40;;;;;;5011035;28;20045;-77
2022/01/25 06:55:14;;;;;;;56.88;22.95;;;7.60;94.40;;;;;;5011443;28;20117;-77
2022/01/25 06:57:39;;;;;;;;;;;7.60;94.50;;;;;;5011482;28;20042;-79
2022/01/25 07:00:09;;;;;;;50.28;21.15;;;7.70;94.50;;;;;;5007854;28;19989;-78
2022/01/25 07:02:35;;;;;;;49.58;21.48;;;7.70;94.50;;;;;;4989525;28;20042;-78
2022/01/25 07:05:01;;;;;;;54.67;23.58;;;7.60;94.50;;;;;;5010518;28;20081;-79
2022/01/25 07:07:28;;;;;;;55.47;22.85;;;7.70;94.60;;;;;;4993888;28;20034;-79
2022/01/25 07:09:54;;;;;;;48.80;20.95;;;7.80;94.50;;;;;;4990227;28;20023;-78
2022/01/25 07:12:19;;;;;;;51.38;22.38;;;7.80;94.50;;;;;;4974126;28;20036;-80
2022/01/25 07:14:45;;;;;;;48.88;21.48;;;7.70;94.30;;;;;;5009326;28;20037;-73
2022/01/25 07:17:11;;;;;;;60.17;22.60;;;7.50;94.30;;;;;;4991207;28;20045;-75
2022/01/25 07:19:37;;;;;;;61.53;25.98;;;7.60;94.90;;;;;;5010938;28;20066;-72
2022/01/25 07:22:02;;;;;;;55.53;22.58;;;7.70;94.90;;;;;;5008972;28;20042;-74
2022/01/25 07:24:28;;;;;;;53.45;22.10;;;7.80;94.80;;;;;;4991605;28;20034;-75
2022/01/25 07:26:54;;;;;;;55.38;21.65;;;7.80;94.80;;;;;;4987756;28;20057;-75
2022/01/25 07:29:20;;;;;;;47.58;20.55;;;7.70;94.50;;;;;;4972787;28;20027;-74
2022/01/25 07:31:45;;;;;;;45.45;20.42;;;7.60;94.40;;;;;;4989948;28;20035;-77
2022/01/25 07:34:11;;;;;;;50.20;21.65;;;7.50;94.60;;;;;;4973359;28;20031;-75
2022/01/25 07:36:38;;;;;;;49.08;20.85;;;7.60;94.70;;;;;;4990813;28;20026;-75
2022/01/25 07:39:05;;;;;;;46.95;20.45;;;7.70;94.80;;;;;;4989440;28;20053;-81
2022/01/25 07:41:31;;;;;;;46.33;19.20;;;7.80;94.70;;;;;;4986972;28;20618;-76
2022/01/25 07:43:59;;;;;;;56.05;20.80;;;7.80;94.60;;;;;;4990993;28;20096;-81
2022/01/25 07:46:25;;;;;;;51.65;22.60;;;7.90;94.70;;;;;;4991905;28;20023;-77
2022/01/25 07:48:50;;;;;;;50.28;21.48;;;7.70;94.40;;;;;;4999078;28;20026;-79
2022/01/25 07:51:16;;;;;;;53.40;22.35;;;7.70;94.50;;;;;;5009016;28;20040;-83
2022/01/25 07:53:43;;;;;;;55.75;23.80;;;7.70;94.60;;;;;;5005859;28;20042;-81
2022/01/25 07:56:10;;;;;;;52.05;21.75;;;7.70;94.80;;;;;;5006120;28;20033;-81
2022/01/25 07:58:35;;;;;;;51.58;21.20;;;7.70;94.70;;;;;;4988901;28;20074;-79
2022/01/25 08:01:01;;;;;;;52.70;21.08;;;7.70;94.70;;;;;;5006119;28;20058;-81
2022/01/25 08:03:28;;;;;;;57.08;24.67;;;7.70;94.80;;;;;;4988765;28;20097;-80
2022/01/25 08:05:53;;;;;;;56.80;23.80;;;7.80;94.60;;;;;;4986102;28;20026;-83
2022/01/25 08:08:19;;;;;;;54.22;21.83;;;7.70;94.70;;;;;;4999130;28;20133;-81
2022/01/25 08:10:45;;;;;;;55.83;23.40;;;7.70;94.60;;;;;;5000652;28;20035;-80
2022/01/25 08:13:11;;;;;;;51.95;23.52;;;7.60;94.60;;;;;;4999621;28;20026;-81
2022/01/25 08:15:36;;;;;;;47.25;21.38;;;7.60;94.80;;;;;;4980583;28;20220;-79
2022/01/25 08:18:02;;;;;;;44.67;20.40;;;7.60;94.70;;;;;;4998556;28;20074;-82
2022/01/25 08:20:28;;;;;;;52.47;20.15;;;7.40;94.70;;;;;;4995529;28;20049;-79
2022/01/25 08:22:54;;;;;;;51.78;21.77;;;7.40;95.00;;;;;;4978268;28;20037;-83
2022/01/25 08:25:19;;;;;;;62.47;22.50;;;7.40;95.00;;;;;;4994559;28;20544;-84
2022/01/25 08:27:47;;;;;;;51.42;23.33;;;7.50;95.00;;;;;;4987735;28;20049;-83
2022/01/25 08:30:13;;;;;;;59.35;23.08;;;7.40;95.10;;;;;;5014098;28;20026;-80
2022/01/25 08:32:39;;;;;;;53.33;23.45;;;7.40;95.10;;;;;;4996142;28;20372;-79
2022/01/25 08:35:05;;;;;;;59.60;24.40;;;7.50;95.10;;;;;;4997135;28;20037;-82
2022/01/25 08:37:31;;;;;;;51.10;22.27;;;7.70;95.20;;;;;;4996862;28;20396;-81
2022/01/25 08:39:57;;;;;;;51.45;22.02;;;7.70;95.10;;;;;;4996380;28;20118;-81
2022/01/25 08:42:23;;;;;;;45.30;19.63;;;7.70;95.00;;;;;;5013739;28;20108;-81
2022/01/25 08:44:50;;;;;;;52.10;21.80;;;7.60;95.00;;;;;;4996765;28;20037;-80
2022/01/25 08:47:16;;;;;;;51.75;21.70;;;7.60;95.10;;;;;;5013861;28;20084;-80
2022/01/25 08:49:42;;;;;;;57.65;21.95;;;7.70;95.10;;;;;;4996547;28;20038;-86
2022/01/25 08:52:07;;;;;;;52.42;22.08;;;7.80;95.10;;;;;;4996591;28;20040;-80
2022/01/25 08:54:34;;;;;;;54.55;21.73;;;7.70;95.00;;;;;;5013861;28;20121;-81
2022/01/25 08:57:01;;;;;;;50.05;21.90;;;7.70;94.90;;;;;;5012687;28;20412;-80
2022/01/25 08:59:26;;;;;;;50.17;21.38;;;7.70;94.80;;;;;;4995856;28;20030;-80
2022/01/25 09:01:52;;;;;;;54.53;21.92;;;7.60;94.90;;;;;;4996371;28;20438;-82
2022/01/25 09:04:18;;;;;;;51.65;21.52;;;7.70;94.90;;;;;;5014145;28;20037;-79
2022/01/25 09:06:44;;;;;;;63.78;22.83;;;7.60;94.90;;;;;;5014494;28;20029;-81
2022/01/25 09:09:10;;;;;;;57.65;24.45;;;7.70;95.10;;;;;;5015143;28;20088;-79
2022/01/25 09:11:38;;;;;;;55.05;21.98;;;7.70;95.00;;;;;;4996671;28;20033;-81
2022/01/25 09:14:04;;;;;;;59.95;23.73;;;7.60;95.00;;;;;;5015601;28;20045;-84
2022/01/25 09:16:29;;;;;;;63.92;23.88;;;7.60;95.10;;;;;;4995749;28;20087;-82
2022/01/25 09:18:55;;;;;;;53.13;22.83;;;7.70;95.20;;;;;;5014411;28;20038;-83
2022/01/25 09:21:21;;;;;;;54.97;23.30;;;7.70;95.10;;;;;;4998239;28;20107;-82
2022/01/25 09:23:47;;;;;;;58.38;23.27;;;7.70;95.10;;;;;;5014204;28;20056;-84
2022/01/25 09:26:12;;;;;;;55.50;23.58;;;7.80;95.20;;;;;;4996765;28;20030;-83
2022/01/25 09:28:38;;;;;;;51.65;23.17;;;7.90;95.20;;;;;;5014234;28;20038;-82
2022/01/25 09:31:04;;;;;;;52.45;23.20;;;7.80;95.00;;;;;;5014212;28;20471;-82
2022/01/25 09:33:29;;;;;;;56.63;23.70;;;7.70;94.90;;;;;;4996786;28;20074;-83
2022/01/25 09:35:56;;;;;;;57.92;24.45;;;7.50;95.10;;;;;;5013871;28;20327;-80
2022/01/25 09:38:23;;;;;;;55.47;23.15;;;7.60;95.20;;;;;;5013510;28;20053;-82
2022/01/25 09:40:50;;;;;;;51.65;23.77;;;7.70;95.30;;;;;;5013584;28;20188;-82
2022/01/25 09:43:17;;;;;;;61.35;23.92;;;7.70;95.20;;;;;;5017374;28;20041;-85
2022/01/25 09:45:43;;;;;;;58.42;24.63;;;7.70;95.30;;;;;;5014753;28;20051;-80
2022/01/25 09:48:10;;;;;;;65.45;24.52;;;7.70;95.40;;;;;;5014650;28;20030;-82
2022/01/25 09:50:38;;;;;;;58.75;23.98;;;7.70;95.40;;;;;;5013598;28;20131;-81
2022/01/25 09:53:05;;;;;;;60.63;23.92;;;7.60;95.40;;;;;;4995264;28;20026;-85
2022/01/25 09:55:35;;;;;;;53.90;23.25;;;7.70;95.50;;;;;;5013255;28;20029;-80
2022/01/25 09:58:02;;;;;;;59.38;25.90;;;7.70;95.20;;;;;;4995640;28;20054;-85
2022/01/25 10:00:30;;;;;;;60.95;26.55;;;7.70;95.30;;;;;;4995512;28;20025;-84
2022/01/25 10:03:21;;;;;;;59.15;24.15;;;7.70;95.50;;;;;;4995640;28;20026;-85
2022/01/25 10:05:50;;;;;;;67.72;26.52;;;7.60;95.40;;;;;;4995440;28;20085;-77
2022/01/25 10:08:18;;;;;;;63.03;26.02;;;7.70;95.50;;;;;;5011978;28;20030;-87
2022/01/25 10:10:48;;;;;;;;;;;7.50;95.60;;;;;;4995247;28;20558;-80
2022/01/25 10:13:24;;;;;;;63.42;24.40;;;7.50;95.60;;;;;;5012945;28;20008;-83
2022/01/25 10:15:51;;;;;;;60.28;27.40;;;7.60;95.70;;;;;;5012018;28;20680;-82
2022/01/25 10:18:17;;;;;;;57.65;24.25;;;7.60;95.60;;;;;;5012857;28;20199;-82
2022/01/25 10:20:49;;;;;;;65.35;25.35;;;7.70;95.70;;;;;;5012411;28;20030;-80
2022/01/25 10:23:19;;;;;;;57.83;23.80;;;7.70;95.60;;;;;;5012084;28;20026;-81
2022/01/25 10:25:47;;;;;;;66.28;26.13;;;7.60;95.50;;;;;;5011929;28;20030;-78
2022/01/25 10:28:15;;;;;;;67.60;26.08;;;7.60;95.70;;;;;;4993438;28;20119;-82
2022/01/25 10:30:47;;;;;;;63.38;27.40;;;7.60;95.80;;;;;;5012161;28;20026;-81
2022/01/25 10:33:18;;;;;;;62.33;24.83;;;7.80;95.70;;;;;;5012917;28;20032;-84
2022/01/25 10:35:44;;;;;;;66.22;26.50;;;7.70;95.70;;;;;;5012054;28;20041;-84
2022/01/25 10:38:29;;;;;;;64.10;27.70;;;7.70;95.80;;;;;;4993870;28;20030;-85
2022/01/25 10:41:07;;;;;;;58.60;25.17;;;7.70;95.70;;;;;;4994579;28;20033;-82
2022/01/25 10:43:35;;;;;;;59.05;25.05;;;7.70;95.70;;;;;;5011793;28;20107;-81
2022/01/25 10:46:10;;;;;;;64.90;28.27;;;7.80;95.90;;;;;;4993944;28;20038;-83
2022/01/25 10:48:38;;;;;;;79.90;29.95;;;7.90;95.80;;;;;;4991392;28;20109;-83
2022/01/25 10:51:15;;;;;;;62.67;26.67;;;7.90;95.80;;;;;;5012362;28;20109;-81
2022/01/25 10:53:42;;;;;;;66.32;26.00;;;7.90;95.90;;;;;;4994123;28;20060;-81
2022/01/25 10:56:08;;;;;;;67.68;25.80;;;8.00;95.80;;;;;;4993939;28;20048;-80
2022/01/25 10:58:42;;;;;;;61.58;24.38;;;8.00;95.80;;;;;;5010962;28;20052;-82
2022/01/25 11:01:10;;;;;;;59.83;26.38;;;8.00;95.80;;;;;;5011930;28;20045;-83
2022/01/25 11:03:38;;;;;;;;;;;7.90;95.90;;;;;;5012249;28;20084;-79
2022/01/25 11:06:16;;;;;;;73.82;27.23;;;7.90;96.00;;;;;;5011599;28;19992;-82
2022/01/25 11:08:46;;;;;;;70.20;26.23;;;7.80;96.00;;;;;;5008215;28;20569;-86
2022/01/25 11:11:34;;;;;;;70.88;24.90;;;7.80;96.30;;;;;;5011187;28;20037;-84
2022/01/25 11:14:50;;;;;;;66.25;25.60;;;7.90;96.10;;;;;;4991239;28;20096;-84
2022/01/25 11:16:49;;;;;;;59.47;23.65;;;8.00;96.10;;;;;;4992275;28;20113;-90
2022/01/25 11:19:18;;;;;;;64.22;26.25;;;8.10;96.20;;;;;;4978336;28;20026;-92
2022/01/25 11:21:44;;;;;;;65.00;25.58;;;8.10;96.00;;;;;;4996868;28;20182;-88
2022/01/25 11:24:15;;;;;;;61.72;26.02;;;8.20;96.00;;;;;;4993452;28;20018;-95
2022/01/25 11:26:43;;;;;;;63.05;26.58;;;8.20;95.90;;;;;;4993460;28;20044;-94
2022/01/25 11:29:09;;;;;;;65.63;26.10;;;8.10;95.80;;;;;;4997993;28;20100;-95
2022/01/25 11:31:38;;;;;;;64.65;24.55;;;8.10;95.90;;;;;;4992242;28;20100;-77
2022/01/25 11:34:08;;;;;;;69.78;26.98;;;8.10;95.90;;;;;;4985179;28;20030;-76
2022/01/25 11:36:56;;;;;;;64.00;26.08;;;8.00;95.80;;;;;;4970479;28;20038;-76
2022/01/25 11:39:25;;;;;;;70.00;26.33;;;7.80;96.00;;;;;;4985227;28;20054;-76
2022/01/25 11:41:51;;;;;;;;;;;7.80;96.20;;;;;;4973439;28;20026;-76
2022/01/25 11:44:26;;;;;;;64.18;26.30;;;7.70;96.30;;;;;;4981834;28;20356;-78
2022/01/25 11:47:13;;;;;;;70.65;26.75;;;7.70;96.50;;;;;;4980964;28;20034;-79
2022/01/25 11:49:53;;;;;;;68.07;26.33;;;7.70;96.50;;;;;;4991135;28;20451;-80
2022/01/25 11:52:20;;;;;;;64.63;26.08;;;7.80;96.60;;;;;;4991127;28;20038;-78
2022/01/25 11:54:49;;;;;;;66.47;26.08;;;7.80;96.60;;;;;;4991213;28;20178;-79
2022/01/25 11:57:26;;;;;;;62.47;27.45;;;7.80;96.70;;;;;;4991185;28;20019;-73
2022/01/25 11:59:57;;;;;;;70.55;26.45;;;7.80;96.70;;;;;;4972890;28;20085;-73
2022/01/25 12:02:47;;;;;;;70.22;30.42;;;7.70;96.80;;;;;;4990850;28;20038;-77
2022/01/25 12:05:16;;;;;;;79.95;32.33;;;7.70;97.00;;;;;;4974131;28;20525;-79
2022/01/25 12:08:05;;;;;;;72.50;27.70;;;7.80;96.80;;;;;;4990660;28;20073;-77
2022/01/25 12:10:40;;;;;;;73.28;27.15;;;7.70;96.50;;;;;;4991725;28;20034;-79
2022/01/25 12:13:28;;;;;;;74.72;30.08;;;7.80;96.80;;;;;;4973797;28;20271;-79
2022/01/25 12:16:27;;;;;;;69.15;27.27;;;7.80;96.80;;;;;;4991609;28;20060;-80
2022/01/25 12:18:58;;;;;;;63.75;25.88;;;7.80;96.60;;;;;;4991393;28;20026;-79
2022/01/25 12:21:50;;;;;;;66.43;26.20;;;7.90;96.70;;;;;;4991478;28;20023;-77
2022/01/25 12:24:28;;;;;;;67.32;26.05;;;7.70;96.80;;;;;;4991148;28;20046;-78
2022/01/25 12:27:09;;;;;;;69.07;27.15;;;7.90;96.80;;;;;;4995401;28;20037;-81
2022/01/25 12:29:57;;;;;;;64.03;25.85;;;8.00;96.70;;;;;;5011145;28;20034;-79
2022/01/25 12:32:36;;;;;;;76.47;28.00;;;8.00;96.60;;;;;;4993358;28;20026;-78
2022/01/25 12:35:17;;;;;;;68.60;26.85;;;8.20;96.50;;;;;;5009885;28;20436;-81
2022/01/25 12:37:43;;;;;;;61.97;25.42;;;8.30;96.40;;;;;;5010948;28;20030;-81
2022/01/25 12:40:25;;;;;;;65.43;26.05;;;8.20;96.30;;;;;;4992519;28;20030;-81
2022/01/25 12:42:56;;;;;;;60.78;24.02;;;8.30;96.30;;;;;;5011091;28;20034;-81
2022/01/25 12:45:24;;;;;;;58.60;24.73;;;8.30;96.10;;;;;;5011170;28;20053;-80
2022/01/25 12:47:57;;;;;;;;;;;8.30;96.20;;;;;;4994265;28;20084;-81
2022/01/25 12:50:23;;;;;;;62.20;25.65;;;8.40;96.10;;;;;;4995376;28;19910;-80
2022/01/25 12:52:49;;;;;;;67.13;26.85;;;8.40;95.90;;;;;;5014301;28;20117;-80
2022/01/25 12:55:21;;;;;;;62.85;24.67;;;8.30;95.90;;;;;;5014241;28;20117;-80
2022/01/25 12:57:51;;;;;;;57.60;24.08;;;8.30;96.00;;;;;;4996753;28;20036;-78
2022/01/25 13:00:17;;;;;;;58.05;24.85;;;8.40;96.00;;;;;;4998655;28;20026;-83
2022/01/25 13:02:43;;;;;;;63.38;26.27;;;8.40;96.20;;;;;;5002617;28;20136;-79
2022/01/25 13:05:21;;;;;;;71.40;24.65;;;8.50;96.00;;;;;;5022210;28;20054;-81
2022/01/25 13:07:48;;;;;;;64.68;27.88;;;8.50;96.00;;;;;;5018371;28;20033;-78
2022/01/25 13:10:29;;;;;;;61.22;23.95;;;8.60;95.80;;;;;;5000655;28;20054;-81
2022/01/25 13:12:58;;;;;;;64.10;25.02;;;8.50;95.80;;;;;;5017001;28;20516;-81
2022/01/25 13:15:53;;;;;;;60.83;24.02;;;8.60;95.80;;;;;;4998720;28;20025;-79
2022/01/25 13:18:18;;;;;;;57.33;22.90;;;8.70;95.70;;;;;;5014447;28;20034;-79
2022/01/25 13:20:47;;;;;;;58.22;21.98;;;8.60;95.40;;;;;;5013251;28;20388;-80
2022/01/25 13:23:13;;;;;;;71.80;26.27;;;8.20;95.70;;;;;;5013125;28;20560;-80
2022/01/25 13:30:59;;;;;;;52.92;22.85;;;8.60;95.70;;;;;;5012967;28;20080;-81
2022/01/25 13:33:28;;;;;;;59.40;24.05;;;8.70;95.70;;;;;;4996055;28;20014;-84
2022/01/25 13:35:56;;;;;;;51.28;21.75;;;8.80;95.70;;;;;;5011681;28;20037;-83
2022/01/25 13:38:24;;;;;;;56.88;24.20;;;8.60;95.70;;;;;;5012781;28;20037;-81
2022/01/25 13:46:23;;;;;;;59.08;23.13;;;8.40;96.10;;;;;;5012681;28;20022;-80
2022/01/25 13:48:55;;;;;;;52.33;21.58;;;8.50;96.40;;;;;;5013273;28;20146;-81
2022/01/25 13:51:27;;;;;;;53.20;21.30;;;8.60;95.90;;;;;;4995818;28;20056;-82
2022/01/25 13:53:56;;;;;;;50.60;21.13;;;8.50;96.10;;;;;;5012448;28;20030;-80
2022/01/25 13:56:25;;;;;;;48.05;20.40;;;8.50;95.80;;;;;;5013034;28;20045;-85
2022/01/25 13:58:52;;;;;;;47.83;20.70;;;8.50;95.90;;;;;;5012257;28;20038;-85
2022/01/25 14:01:20;;;;;;;48.33;20.37;;;8.70;95.60;;;;;;5012374;28;20050;-80
2022/01/25 14:04:18;;;;;;;50.17;21.33;;;8.50;95.70;;;;;;5012259;28;20041;-93
2022/01/25 14:06:50;;;;;;;63.25;27.60;;;8.50;95.80;;;;;;4997736;28;20037;-88
2022/01/25 14:09:29;;;;;;;73.60;27.55;;;8.40;95.80;;;;;;5015292;28;20026;-90
2022/01/25 14:25:46;;;;;;;62.38;23.17;;;8.50;96.00;;;;;;5026978;28;20044;-85
2022/01/25 14:28:16;;;;;;;55.30;21.48;;;8.60;96.10;;;;;;4995900;28;20155;-84
2022/01/25 14:30:54;;;;;;;56.05;21.25;;;8.70;95.80;;;;;;5010893;28;20021;-85
2022/01/25 14:33:28;;;;;;;45.42;21.05;;;8.60;95.60;;;;;;5009333;28;20036;-84
2022/01/25 14:35:56;;;;;;;53.58;22.38;;;8.50;95.70;;;;;;5031532;28;20022;-79
2022/01/25 14:38:31;;;;;;;51.60;19.25;;;8.40;95.80;;;;;;5025466;28;20026;-82
2022/01/25 14:41:12;;;;;;;48.95;21.00;;;8.20;96.00;;;;;;5004396;28;20116;-79
2022/01/25 14:43:51;;;;;;;52.40;20.48;;;8.30;96.10;;;;;;5019771;28;20037;-79
2022/01/25 14:46:32;;;;;;;48.42;20.48;;;8.20;96.10;;;;;;5021469;28;20456;-78
2022/01/25 14:49:02;;;;;;;48.28;20.08;;;7.90;96.20;;;;;;5028641;28;20033;-88